sensor_id;sensor_type;location;lat;lon;timestamp;P1;durP1;ratioP1;P2;durP2;ratioP2
22144;SDS011;11238;48.730;11.566;2022-11-20T00:42:32;28.35;;;15.50;;
22144;SDS011;11238;48.730;11.566;2022-11-20T00:44:58;27.90;;;16.00;;
22144;SDS011;11238;48.730;11.566;2022-11-20T00:47:24;28.73;;;15.65;;
22144;SDS011;11238;48.730;11.566;2022-11-20T00:49:50;28.88;;;17.00;;
22144;SDS011;11238;48.730;11.566;2022-11-20T00:52:16;28.85;;;17.48;;
22144;SDS011;11238;48.730;11.566;2022-11-20T00:54:42;30.38;;;17.40;;
22144;SDS011;11238;48.730;11.566;2022-11-20T00:57:07;30.75;;;17.35;;
22144;SDS011;11238;48.730;11.566;2022-11-20T00:59:33;32.35;;;17.75;;
22144;SDS011;11238;48.730;11.566;2022-11-20T01:01:59;30.33;;;18.20;;
22144;SDS011;11238;48.730;11.566;2022-11-20T01:04:25;30.27;;;17.65;;
22144;SDS011;11238;48.730;11.566;2022-11-20T01:06:51;29.15;;;17.35;;
22144;SDS011;11238;48.730;11.566;2022-11-20T01:09:16;27.33;;;16.85;;
22144;SDS011;11238;48.730;11.566;2022-11-20T01:11:43;28.75;;;17.33;;
22144;SDS011;11238;48.730;11.566;2022-11-20T01:14:11;26.33;;;16.38;;
22144;SDS011;11238;48.730;11.566;2022-11-20T01:16:40;29.35;;;17.30;;
22144;SDS011;11238;48.730;11.566;2022-11-20T01:19:10;27.92;;;16.80;;
22144;SDS011;11238;48.730;11.566;2022-11-20T01:21:38;27.58;;;16.10;;
22144;SDS011;11238;48.730;11.566;2022-11-20T01:24:06;27.98;;;17.38;;
22144;SDS011;11238;48.730;11.566;2022-11-20T01:26:35;30.45;;;18.05;;
22144;SDS011;11238;48.730;11.566;2022-11-20T01:29:02;29.55;;;17.23;;
22144;SDS011;11238;48.730;11.566;2022-11-20T01:31:30;32.50;;;17.73;;
22144;SDS011;11238;48.730;11.566;2022-11-20T01:34:00;31.15;;;17.88;;
22144;SDS011;11238;48.730;11.566;2022-11-20T01:36:29;29.60;;;16.92;;
22144;SDS011;11238;48.730;11.566;2022-11-20T01:38:58;28.45;;;16.92;;
22144;SDS011;11238;48.730;11.566;2022-11-20T01:41:26;27.23;;;16.95;;
22144;SDS011;11238;48.730;11.566;2022-11-20T01:44:14;27.52;;;16.67;;
22144;SDS011;11238;48.730;11.566;2022-11-20T01:46:52;29.98;;;17.10;;
22144;SDS011;11238;48.730;11.566;2022-11-20T01:49:31;29.27;;;15.75;;
22144;SDS011;11238;48.730;11.566;2022-11-20T01:52:04;29.30;;;17.25;;
22144;SDS011;11238;48.730;11.566;2022-11-20T01:54:36;28.98;;;17.40;;
22144;SDS011;11238;48.730;11.566;2022-11-20T01:57:06;32.00;;;17.33;;
22144;SDS011;11238;48.730;11.566;2022-11-20T01:59:35;29.17;;;16.77;;
22144;SDS011;11238;48.730;11.566;2022-11-20T02:02:06;31.95;;;17.77;;
22144;SDS011;11238;48.730;11.566;2022-11-20T02:04:32;32.40;;;18.23;;
22144;SDS011;11238;48.730;11.566;2022-11-20T02:06:59;32.97;;;17.73;;
22144;SDS011;11238;48.730;11.566;2022-11-20T02:09:26;32.45;;;18.73;;
22144;SDS011;11238;48.730;11.566;2022-11-20T02:11:53;31.55;;;17.98;;
22144;SDS011;11238;48.730;11.566;2022-11-20T02:14:19;29.52;;;17.35;;
22144;SDS011;11238;48.730;11.566;2022-11-20T02:16:47;30.45;;;17.70;;
22144;SDS011;11238;48.730;11.566;2022-11-20T02:19:25;29.80;;;17.27;;
22144;SDS011;11238;48.730;11.566;2022-11-20T02:21:59;33.08;;;17.85;;
22144;SDS011;11238;48.730;11.566;2022-11-20T02:24:25;27.90;;;16.48;;
22144;SDS011;11238;48.730;11.566;2022-11-20T02:30:03;29.65;;;17.10;;
22144;SDS011;11238;48.730;11.566;2022-11-20T02:32:35;28.73;;;16.80;;
22144;SDS011;11238;48.730;11.566;2022-11-20T02:35:08;31.42;;;18.10;;
22144;SDS011;11238;48.730;11.566;2022-11-20T02:37:36;32.03;;;17.17;;
22144;SDS011;11238;48.730;11.566;2022-11-20T02:40:05;31.10;;;17.60;;
22144;SDS011;11238;48.730;11.566;2022-11-20T02:42:32;31.30;;;17.52;;
22144;SDS011;11238;48.730;11.566;2022-11-20T02:44:57;33.25;;;17.77;;
22144;SDS011;11238;48.730;11.566;2022-11-20T02:47:23;27.55;;;16.33;;
22144;SDS011;11238;48.730;11.566;2022-11-20T02:49:49;32.72;;;17.17;;
22144;SDS011;11238;48.730;11.566;2022-11-20T02:52:14;33.42;;;17.35;;
22144;SDS011;11238;48.730;11.566;2022-11-20T02:54:40;34.28;;;16.85;;
22144;SDS011;11238;48.730;11.566;2022-11-20T02:57:06;27.17;;;15.50;;
22144;SDS011;11238;48.730;11.566;2022-11-20T02:59:32;30.67;;;16.70;;
22144;SDS011;11238;48.730;11.566;2022-11-20T03:01:59;27.77;;;16.05;;
22144;SDS011;11238;48.730;11.566;2022-11-20T03:04:24;29.75;;;16.35;;
22144;SDS011;11238;48.730;11.566;2022-11-20T03:06:50;30.10;;;16.27;;
22144;SDS011;11238;48.730;11.566;2022-11-20T03:09:16;31.27;;;17.30;;
22144;SDS011;11238;48.730;11.566;2022-11-20T03:11:42;30.20;;;17.15;;
22144;SDS011;11238;48.730;11.566;2022-11-20T03:14:08;30.17;;;17.00;;
22144;SDS011;11238;48.730;11.566;2022-11-20T03:16:34;28.90;;;16.35;;
22144;SDS011;11238;48.730;11.566;2022-11-20T03:19:00;29.70;;;16.45;;
22144;SDS011;11238;48.730;11.566;2022-11-20T03:21:26;30.42;;;16.45;;
22144;SDS011;11238;48.730;11.566;2022-11-20T03:23:53;31.88;;;17.55;;
22144;SDS011;11238;48.730;11.566;2022-11-20T03:26:22;31.95;;;18.55;;
22144;SDS011;11238;48.730;11.566;2022-11-20T03:28:50;32.13;;;17.33;;
22144;SDS011;11238;48.730;11.566;2022-11-20T03:31:18;31.80;;;18.08;;
22144;SDS011;11238;48.730;11.566;2022-11-20T03:33:46;31.20;;;17.05;;
22144;SDS011;11238;48.730;11.566;2022-11-20T03:36:14;33.13;;;17.40;;
22144;SDS011;11238;48.730;11.566;2022-11-20T03:38:40;29.50;;;16.60;;
22144;SDS011;11238;48.730;11.566;2022-11-20T03:41:08;29.73;;;16.65;;
22144;SDS011;11238;48.730;11.566;2022-11-20T03:43:41;29.70;;;16.85;;
22144;SDS011;11238;48.730;11.566;2022-11-20T03:46:07;28.02;;;15.85;;
22144;SDS011;11238;48.730;11.566;2022-11-20T03:48:33;29.02;;;15.98;;
22144;SDS011;11238;48.730;11.566;2022-11-20T03:51:13;29.38;;;15.70;;
22144;SDS011;11238;48.730;11.566;2022-11-20T03:56:10;29.60;;;16.42;;
22144;SDS011;11238;48.730;11.566;2022-11-20T03:58:38;31.70;;;16.33;;
22144;SDS011;11238;48.730;11.566;2022-11-20T04:01:12;30.75;;;16.60;;
22144;SDS011;11238;48.730;11.566;2022-11-20T04:03:40;30.95;;;17.25;;
22144;SDS011;11238;48.730;11.566;2022-11-20T04:06:11;30.58;;;16.60;;
22144;SDS011;11238;48.730;11.566;2022-11-20T04:08:39;29.52;;;17.35;;
22144;SDS011;11238;48.730;11.566;2022-11-20T04:11:09;28.48;;;16.50;;
22144;SDS011;11238;48.730;11.566;2022-11-20T04:13:36;29.50;;;16.67;;
22144;SDS011;11238;48.730;11.566;2022-11-20T04:16:03;29.55;;;16.55;;
22144;SDS011;11238;48.730;11.566;2022-11-20T04:18:31;30.25;;;16.80;;
22144;SDS011;11238;48.730;11.566;2022-11-20T04:20:57;31.25;;;16.90;;
22144;SDS011;11238;48.730;11.566;2022-11-20T04:23:23;30.27;;;17.30;;
22144;SDS011;11238;48.730;11.566;2022-11-20T04:25:50;30.77;;;16.77;;
22144;SDS011;11238;48.730;11.566;2022-11-20T04:28:15;29.45;;;16.80;;
22144;SDS011;11238;48.730;11.566;2022-11-20T04:30:41;28.75;;;16.42;;
22144;SDS011;11238;48.730;11.566;2022-11-20T04:33:07;29.00;;;16.42;;
22144;SDS011;11238;48.730;11.566;2022-11-20T04:35:34;28.50;;;16.65;;
22144;SDS011;11238;48.730;11.566;2022-11-20T04:38:00;29.63;;;16.45;;
22144;SDS011;11238;48.730;11.566;2022-11-20T04:40:30;28.95;;;15.68;;
22144;SDS011;11238;48.730;11.566;2022-11-20T04:42:55;24.75;;;14.68;;
22144;SDS011;11238;48.730;11.566;2022-11-20T04:45:22;27.73;;;15.68;;
22144;SDS011;11238;48.730;11.566;2022-11-20T04:47:48;28.90;;;15.52;;
22144;SDS011;11238;48.730;11.566;2022-11-20T04:50:14;27.67;;;15.38;;
22144;SDS011;11238;48.730;11.566;2022-11-20T04:52:40;26.83;;;15.75;;
22144;SDS011;11238;48.730;11.566;2022-11-20T04:55:06;25.90;;;14.57;;
22144;SDS011;11238;48.730;11.566;2022-11-20T04:57:33;26.00;;;14.15;;
22144;SDS011;11238;48.730;11.566;2022-11-20T04:59:59;26.75;;;13.63;;
22144;SDS011;11238;48.730;11.566;2022-11-20T05:02:24;22.50;;;13.10;;
22144;SDS011;11238;48.730;11.566;2022-11-20T05:04:50;23.27;;;12.23;;
22144;SDS011;11238;48.730;11.566;2022-11-20T05:07:16;20.55;;;11.90;;
22144;SDS011;11238;48.730;11.566;2022-11-20T05:09:42;16.75;;;9.38;;
22144;SDS011;11238;48.730;11.566;2022-11-20T05:12:08;14.95;;;8.88;;
22144;SDS011;11238;48.730;11.566;2022-11-20T05:14:34;12.05;;;8.15;;
22144;SDS011;11238;48.730;11.566;2022-11-20T05:17:00;14.27;;;8.00;;
22144;SDS011;11238;48.730;11.566;2022-11-20T05:19:26;13.23;;;7.90;;
22144;SDS011;11238;48.730;11.566;2022-11-20T05:21:52;11.40;;;7.40;;
22144;SDS011;11238;48.730;11.566;2022-11-20T05:24:18;12.27;;;6.97;;
22144;SDS011;11238;48.730;11.566;2022-11-20T05:26:44;10.88;;;6.68;;
22144;SDS011;11238;48.730;11.566;2022-11-20T05:29:11;11.07;;;6.53;;
22144;SDS011;11238;48.730;11.566;2022-11-20T05:31:38;11.00;;;6.90;;
22144;SDS011;11238;48.730;11.566;2022-11-20T05:34:05;10.35;;;6.47;;
22144;SDS011;11238;48.730;11.566;2022-11-20T05:36:31;9.48;;;6.50;;
22144;SDS011;11238;48.730;11.566;2022-11-20T05:38:57;11.02;;;6.88;;
22144;SDS011;11238;48.730;11.566;2022-11-20T05:41:23;10.95;;;6.38;;
22144;SDS011;11238;48.730;11.566;2022-11-20T05:43:49;9.38;;;6.20;;
22144;SDS011;11238;48.730;11.566;2022-11-20T05:46:16;8.32;;;6.35;;
22144;SDS011;11238;48.730;11.566;2022-11-20T05:48:44;8.93;;;6.47;;
22144;SDS011;11238;48.730;11.566;2022-11-20T05:51:12;9.52;;;6.00;;
22144;SDS011;11238;48.730;11.566;2022-11-20T05:53:41;11.27;;;6.80;;
22144;SDS011;11238;48.730;11.566;2022-11-20T05:56:09;7.22;;;5.80;;
22144;SDS011;11238;48.730;11.566;2022-11-20T05:58:37;8.52;;;6.20;;
22144;SDS011;11238;48.730;11.566;2022-11-20T06:01:11;11.30;;;6.13;;
22144;SDS011;11238;48.730;11.566;2022-11-20T06:03:39;6.75;;;5.57;;
22144;SDS011;11238;48.730;11.566;2022-11-20T06:06:07;6.88;;;5.50;;
22144;SDS011;11238;48.730;11.566;2022-11-20T06:08:33;7.75;;;5.50;;
22144;SDS011;11238;48.730;11.566;2022-11-20T06:11:03;7.30;;;5.57;;
22144;SDS011;11238;48.730;11.566;2022-11-20T06:13:34;7.32;;;5.28;;
22144;SDS011;11238;48.730;11.566;2022-11-20T06:16:00;15.30;;;11.52;;
22144;SDS011;11238;48.730;11.566;2022-11-20T06:18:27;8.65;;;5.38;;
22144;SDS011;11238;48.730;11.566;2022-11-20T06:21:06;7.90;;;5.47;;
22144;SDS011;11238;48.730;11.566;2022-11-20T06:23:34;7.75;;;5.30;;
22144;SDS011;11238;48.730;11.566;2022-11-20T06:26:01;7.20;;;5.30;;
22144;SDS011;11238;48.730;11.566;2022-11-20T06:28:31;6.72;;;5.07;;
22144;SDS011;11238;48.730;11.566;2022-11-20T06:30:57;11.43;;;5.97;;
22144;SDS011;11238;48.730;11.566;2022-11-20T06:33:24;8.45;;;5.50;;
22144;SDS011;11238;48.730;11.566;2022-11-20T06:35:50;6.15;;;5.13;;
22144;SDS011;11238;48.730;11.566;2022-11-20T06:38:16;7.35;;;4.78;;
22144;SDS011;11238;48.730;11.566;2022-11-20T06:40:42;6.18;;;4.95;;
22144;SDS011;11238;48.730;11.566;2022-11-20T06:43:09;6.32;;;4.20;;
22144;SDS011;11238;48.730;11.566;2022-11-20T06:45:35;8.30;;;4.97;;
22144;SDS011;11238;48.730;11.566;2022-11-20T06:48:05;6.97;;;4.60;;
22144;SDS011;11238;48.730;11.566;2022-11-20T06:50:31;8.18;;;4.63;;
22144;SDS011;11238;48.730;11.566;2022-11-20T06:52:59;5.78;;;4.28;;
22144;SDS011;11238;48.730;11.566;2022-11-20T06:55:27;5.63;;;4.22;;
22144;SDS011;11238;48.730;11.566;2022-11-20T06:57:53;6.78;;;4.22;;
22144;SDS011;11238;48.730;11.566;2022-11-20T07:00:18;6.57;;;4.18;;
22144;SDS011;11238;48.730;11.566;2022-11-20T07:02:44;4.88;;;3.95;;
22144;SDS011;11238;48.730;11.566;2022-11-20T07:05:10;6.07;;;3.92;;
22144;SDS011;11238;48.730;11.566;2022-11-20T07:07:36;4.85;;;3.67;;
22144;SDS011;11238;48.730;11.566;2022-11-20T07:10:02;4.72;;;3.92;;
22144;SDS011;11238;48.730;11.566;2022-11-20T07:12:31;6.60;;;3.88;;
22144;SDS011;11238;48.730;11.566;2022-11-20T07:14:58;4.68;;;3.67;;
22144;SDS011;11238;48.730;11.566;2022-11-20T07:17:23;5.47;;;3.80;;
22144;SDS011;11238;48.730;11.566;2022-11-20T07:19:49;5.15;;;3.50;;
22144;SDS011;11238;48.730;11.566;2022-11-20T07:22:15;5.10;;;4.10;;
22144;SDS011;11238;48.730;11.566;2022-11-20T07:24:42;4.35;;;3.55;;
22144;SDS011;11238;48.730;11.566;2022-11-20T07:27:07;5.28;;;3.90;;
22144;SDS011;11238;48.730;11.566;2022-11-20T07:29:34;5.70;;;3.60;;
22144;SDS011;11238;48.730;11.566;2022-11-20T07:32:00;8.45;;;4.30;;
22144;SDS011;11238;48.730;11.566;2022-11-20T07:34:26;4.03;;;3.55;;
22144;SDS011;11238;48.730;11.566;2022-11-20T07:36:52;3.80;;;3.40;;
22144;SDS011;11238;48.730;11.566;2022-11-20T07:39:17;4.70;;;3.80;;
22144;SDS011;11238;48.730;11.566;2022-11-20T07:41:43;4.10;;;3.63;;
22144;SDS011;11238;48.730;11.566;2022-11-20T07:44:09;5.65;;;3.67;;
22144;SDS011;11238;48.730;11.566;2022-11-20T07:46:35;5.60;;;4.38;;
22144;SDS011;11238;48.730;11.566;2022-11-20T07:49:01;5.47;;;4.05;;
22144;SDS011;11238;48.730;11.566;2022-11-20T07:51:26;5.90;;;3.92;;
22144;SDS011;11238;48.730;11.566;2022-11-20T07:53:53;6.60;;;4.00;;
22144;SDS011;11238;48.730;11.566;2022-11-20T07:56:18;7.75;;;4.03;;
22144;SDS011;11238;48.730;11.566;2022-11-20T07:58:44;5.90;;;4.00;;
22144;SDS011;11238;48.730;11.566;2022-11-20T08:01:10;4.95;;;4.25;;
22144;SDS011;11238;48.730;11.566;2022-11-20T08:03:37;5.80;;;3.80;;
22144;SDS011;11238;48.730;11.566;2022-11-20T08:06:02;5.07;;;3.90;;
22144;SDS011;11238;48.730;11.566;2022-11-20T08:08:29;5.22;;;3.78;;
22144;SDS011;11238;48.730;11.566;2022-11-20T08:10:58;6.25;;;3.85;;
22144;SDS011;11238;48.730;11.566;2022-11-20T08:13:42;4.25;;;3.67;;
22144;SDS011;11238;48.730;11.566;2022-11-20T08:16:27;5.28;;;3.83;;
22144;SDS011;11238;48.730;11.566;2022-11-20T08:18:53;5.68;;;3.65;;
22144;SDS011;11238;48.730;11.566;2022-11-20T08:21:19;5.00;;;3.80;;
22144;SDS011;11238;48.730;11.566;2022-11-20T08:23:45;9.57;;;3.80;;
22144;SDS011;11238;48.730;11.566;2022-11-20T08:26:11;5.22;;;4.07;;
22144;SDS011;11238;48.730;11.566;2022-11-20T08:28:37;4.45;;;3.63;;
22144;SDS011;11238;48.730;11.566;2022-11-20T08:31:03;4.18;;;3.45;;
22144;SDS011;11238;48.730;11.566;2022-11-20T08:33:29;6.15;;;3.95;;
22144;SDS011;11238;48.730;11.566;2022-11-20T08:35:59;4.30;;;3.63;;
22144;SDS011;11238;48.730;11.566;2022-11-20T08:38:26;5.75;;;3.80;;
22144;SDS011;11238;48.730;11.566;2022-11-20T08:40:52;5.05;;;3.75;;
22144;SDS011;11238;48.730;11.566;2022-11-20T08:43:40;4.50;;;3.55;;
22144;SDS011;11238;48.730;11.566;2022-11-20T08:46:05;4.43;;;3.47;;
22144;SDS011;11238;48.730;11.566;2022-11-20T08:48:39;3.78;;;3.30;;
22144;SDS011;11238;48.730;11.566;2022-11-20T08:51:05;3.75;;;3.35;;
22144;SDS011;11238;48.730;11.566;2022-11-20T08:53:31;4.32;;;3.30;;
22144;SDS011;11238;48.730;11.566;2022-11-20T08:55:56;4.30;;;3.05;;
22144;SDS011;11238;48.730;11.566;2022-11-20T08:58:29;5.00;;;3.33;;
22144;SDS011;11238;48.730;11.566;2022-11-20T09:00:54;3.90;;;3.35;;
22144;SDS011;11238;48.730;11.566;2022-11-20T09:03:20;4.22;;;3.40;;
22144;SDS011;11238;48.730;11.566;2022-11-20T09:05:46;3.67;;;2.75;;
22144;SDS011;11238;48.730;11.566;2022-11-20T09:08:12;3.97;;;3.58;;
22144;SDS011;11238;48.730;11.566;2022-11-20T09:10:38;4.00;;;3.25;;
22144;SDS011;11238;48.730;11.566;2022-11-20T09:13:07;5.05;;;3.20;;
22144;SDS011;11238;48.730;11.566;2022-11-20T09:15:35;5.30;;;3.58;;
22144;SDS011;11238;48.730;11.566;2022-11-20T09:18:02;3.78;;;3.10;;
22144;SDS011;11238;48.730;11.566;2022-11-20T09:20:29;3.78;;;3.20;;
22144;SDS011;11238;48.730;11.566;2022-11-20T09:22:57;4.93;;;3.70;;
22144;SDS011;11238;48.730;11.566;2022-11-20T09:25:23;4.18;;;3.50;;
22144;SDS011;11238;48.730;11.566;2022-11-20T09:27:54;4.55;;;3.30;;
22144;SDS011;11238;48.730;11.566;2022-11-20T09:30:24;4.32;;;3.25;;
22144;SDS011;11238;48.730;11.566;2022-11-20T09:32:50;5.97;;;3.45;;
22144;SDS011;11238;48.730;11.566;2022-11-20T09:35:16;5.80;;;3.58;;
22144;SDS011;11238;48.730;11.566;2022-11-20T09:37:43;4.72;;;3.50;;
22144;SDS011;11238;48.730;11.566;2022-11-20T09:40:22;5.05;;;3.22;;
22144;SDS011;11238;48.730;11.566;2022-11-20T09:45:50;5.72;;;3.33;;
22144;SDS011;11238;48.730;11.566;2022-11-20T09:51:39;6.75;;;3.50;;
22144;SDS011;11238;48.730;11.566;2022-11-20T09:54:35;4.03;;;3.30;;
22144;SDS011;11238;48.730;11.566;2022-11-20T09:57:15;4.57;;;3.30;;
22144;SDS011;11238;48.730;11.566;2022-11-20T09:59:46;4.10;;;3.28;;
22144;SDS011;11238;48.730;11.566;2022-11-20T10:05:27;3.85;;;3.00;;
22144;SDS011;11238;48.730;11.566;2022-11-20T10:08:19;4.35;;;3.15;;
22144;SDS011;11238;48.730;11.566;2022-11-20T10:11:04;3.40;;;2.88;;
22144;SDS011;11238;48.730;11.566;2022-11-20T10:19:27;4.95;;;2.90;;
22144;SDS011;11238;48.730;11.566;2022-11-20T10:25:13;5.68;;;3.13;;
22144;SDS011;11238;48.730;11.566;2022-11-20T10:27:56;4.20;;;2.75;;
22144;SDS011;11238;48.730;11.566;2022-11-20T10:31:03;3.88;;;3.00;;
22144;SDS011;11238;48.730;11.566;2022-11-20T10:39:51;3.20;;;2.90;;
22144;SDS011;11238;48.730;11.566;2022-11-20T10:42:26;3.85;;;3.03;;
22144;SDS011;11238;48.730;11.566;2022-11-20T10:45:39;3.35;;;2.80;;
22144;SDS011;11238;48.730;11.566;2022-11-20T10:48:14;3.05;;;2.60;;
22144;SDS011;11238;48.730;11.566;2022-11-20T10:51:09;4.80;;;2.85;;
22144;SDS011;11238;48.730;11.566;2022-11-20T10:54:09;5.10;;;2.95;;
22144;SDS011;11238;48.730;11.566;2022-11-20T10:56:47;4.30;;;2.90;;
22144;SDS011;11238;48.730;11.566;2022-11-20T10:59:25;3.05;;;2.70;;
22144;SDS011;11238;48.730;11.566;2022-11-20T11:02:24;4.38;;;3.05;;
22144;SDS011;11238;48.730;11.566;2022-11-20T11:05:01;3.80;;;2.78;;
22144;SDS011;11238;48.730;11.566;2022-11-20T11:07:38;3.35;;;2.80;;
22144;SDS011;11238;48.730;11.566;2022-11-20T11:10:14;4.50;;;3.13;;
22144;SDS011;11238;48.730;11.566;2022-11-20T11:12:45;3.90;;;2.83;;
22144;SDS011;11238;48.730;11.566;2022-11-20T11:15:14;4.57;;;2.63;;
22144;SDS011;11238;48.730;11.566;2022-11-20T11:18:43;3.30;;;2.70;;
22144;SDS011;11238;48.730;11.566;2022-11-20T11:21:09;3.97;;;2.50;;
22144;SDS011;11238;48.730;11.566;2022-11-20T11:23:36;4.45;;;2.75;;
22144;SDS011;11238;48.730;11.566;2022-11-20T11:26:05;3.85;;;2.78;;
22144;SDS011;11238;48.730;11.566;2022-11-20T11:28:32;2.75;;;2.38;;
22144;SDS011;11238;48.730;11.566;2022-11-20T11:30:58;2.63;;;2.25;;
22144;SDS011;11238;48.730;11.566;2022-11-20T11:33:25;2.42;;;2.22;;
22144;SDS011;11238;48.730;11.566;2022-11-20T11:35:56;2.35;;;2.15;;
22144;SDS011;11238;48.730;11.566;2022-11-20T11:38:34;5.90;;;2.22;;
22144;SDS011;11238;48.730;11.566;2022-11-20T11:41:07;3.50;;;2.38;;
22144;SDS011;11238;48.730;11.566;2022-11-20T11:43:38;4.77;;;2.60;;
22144;SDS011;11238;48.730;11.566;2022-11-20T11:54:27;3.00;;;2.20;;
22144;SDS011;11238;48.730;11.566;2022-11-20T11:57:05;2.28;;;1.90;;
22144;SDS011;11238;48.730;11.566;2022-11-20T11:59:43;2.53;;;2.25;;
22144;SDS011;11238;48.730;11.566;2022-11-20T12:05:00;3.55;;;2.40;;
22144;SDS011;11238;48.730;11.566;2022-11-20T12:13:15;6.13;;;3.08;;
22144;SDS011;11238;48.730;11.566;2022-11-20T12:15:47;5.22;;;2.95;;
22144;SDS011;11238;48.730;11.566;2022-11-20T12:18:21;4.82;;;2.90;;
22144;SDS011;11238;48.730;11.566;2022-11-20T12:26:22;4.53;;;2.92;;
22144;SDS011;11238;48.730;11.566;2022-11-20T12:29:26;3.28;;;2.78;;
22144;SDS011;11238;48.730;11.566;2022-11-20T12:40:34;2.83;;;2.50;;
22144;SDS011;11238;48.730;11.566;2022-11-20T12:43:14;2.97;;;2.35;;
22144;SDS011;11238;48.730;11.566;2022-11-20T12:49:20;3.15;;;2.10;;
22144;SDS011;11238;48.730;11.566;2022-11-20T12:52:00;3.10;;;2.53;;
22144;SDS011;11238;48.730;11.566;2022-11-20T13:00:17;2.40;;;2.20;;
22144;SDS011;11238;48.730;11.566;2022-11-20T13:05:48;4.45;;;1.92;;
22144;SDS011;11238;48.730;11.566;2022-11-20T13:08:37;4.68;;;2.33;;
22144;SDS011;11238;48.730;11.566;2022-11-20T13:11:17;3.05;;;2.10;;
22144;SDS011;11238;48.730;11.566;2022-11-20T13:16:58;2.38;;;2.17;;
22144;SDS011;11238;48.730;11.566;2022-11-20T13:19:31;2.97;;;2.00;;
22144;SDS011;11238;48.730;11.566;2022-11-20T13:21:57;2.80;;;2.00;;
22144;SDS011;11238;48.730;11.566;2022-11-20T13:24:24;4.18;;;1.90;;
22144;SDS011;11238;48.730;11.566;2022-11-20T13:30:10;3.22;;;2.10;;
22144;SDS011;11238;48.730;11.566;2022-11-20T13:32:50;5.40;;;2.08;;
22144;SDS011;11238;48.730;11.566;2022-11-20T13:35:29;2.17;;;1.88;;
22144;SDS011;11238;48.730;11.566;2022-11-20T13:38:14;3.83;;;2.20;;
22144;SDS011;11238;48.730;11.566;2022-11-20T13:45:53;2.45;;;1.98;;
22144;SDS011;11238;48.730;11.566;2022-11-20T13:48:24;3.13;;;1.65;;
22144;SDS011;11238;48.730;11.566;2022-11-20T13:51:03;2.10;;;1.90;;
22144;SDS011;11238;48.730;11.566;2022-11-20T13:56:43;2.00;;;1.80;;
22144;SDS011;11238;48.730;11.566;2022-11-20T14:02:16;3.80;;;1.85;;
22144;SDS011;11238;48.730;11.566;2022-11-20T14:04:48;3.60;;;1.80;;
22144;SDS011;11238;48.730;11.566;2022-11-20T14:09:51;2.50;;;1.90;;
22144;SDS011;11238;48.730;11.566;2022-11-20T14:12:23;2.13;;;1.92;;
22144;SDS011;11238;48.730;11.566;2022-11-20T14:14:57;2.20;;;1.90;;
22144;SDS011;11238;48.730;11.566;2022-11-20T14:17:28;2.00;;;1.80;;
22144;SDS011;11238;48.730;11.566;2022-11-20T14:20:00;2.03;;;1.60;;
22144;SDS011;11238;48.730;11.566;2022-11-20T14:22:29;2.25;;;1.70;;
22144;SDS011;11238;48.730;11.566;2022-11-20T14:27:41;2.33;;;1.65;;
22144;SDS011;11238;48.730;11.566;2022-11-20T14:30:15;3.88;;;2.08;;
22144;SDS011;11238;48.730;11.566;2022-11-20T14:32:43;2.20;;;2.00;;
22144;SDS011;11238;48.730;11.566;2022-11-20T14:35:27;2.30;;;2.10;;
22144;SDS011;11238;48.730;11.566;2022-11-20T14:38:02;3.08;;;1.70;;
22144;SDS011;11238;48.730;11.566;2022-11-20T14:40:30;2.20;;;1.88;;
22144;SDS011;11238;48.730;11.566;2022-11-20T14:42:57;2.88;;;1.73;;
22144;SDS011;11238;48.730;11.566;2022-11-20T14:45:24;4.10;;;1.75;;
22144;SDS011;11238;48.730;11.566;2022-11-20T14:47:52;2.30;;;1.77;;
22144;SDS011;11238;48.730;11.566;2022-11-20T14:50:24;2.25;;;2.05;;
22144;SDS011;11238;48.730;11.566;2022-11-20T14:52:56;4.43;;;1.90;;
22144;SDS011;11238;48.730;11.566;2022-11-20T14:58:02;3.90;;;1.70;;
22144;SDS011;11238;48.730;11.566;2022-11-20T15:00:30;4.40;;;1.92;;
22144;SDS011;11238;48.730;11.566;2022-11-20T15:02:58;2.35;;;1.60;;
22144;SDS011;11238;48.730;11.566;2022-11-20T15:05:25;2.63;;;1.70;;
22144;SDS011;11238;48.730;11.566;2022-11-20T15:08:09;3.22;;;1.92;;
22144;SDS011;11238;48.730;11.566;2022-11-20T15:10:35;1.98;;;1.60;;
22144;SDS011;11238;48.730;11.566;2022-11-20T15:13:13;1.60;;;1.50;;
22144;SDS011;11238;48.730;11.566;2022-11-20T15:15:58;3.20;;;1.90;;
22144;SDS011;11238;48.730;11.566;2022-11-20T15:21:02;4.32;;;2.30;;
22144;SDS011;11238;48.730;11.566;2022-11-20T15:23:35;2.28;;;1.80;;
22144;SDS011;11238;48.730;11.566;2022-11-20T15:26:01;2.05;;;1.77;;
22144;SDS011;11238;48.730;11.566;2022-11-20T15:30:59;2.55;;;1.90;;
22144;SDS011;11238;48.730;11.566;2022-11-20T15:33:28;2.67;;;2.00;;
22144;SDS011;11238;48.730;11.566;2022-11-20T15:35:54;2.15;;;1.80;;
22144;SDS011;11238;48.730;11.566;2022-11-20T15:38:20;2.65;;;1.98;;
22144;SDS011;11238;48.730;11.566;2022-11-20T15:40:46;2.80;;;1.80;;
22144;SDS011;11238;48.730;11.566;2022-11-20T15:43:12;1.92;;;1.60;;
22144;SDS011;11238;48.730;11.566;2022-11-20T15:45:46;2.83;;;1.95;;
22144;SDS011;11238;48.730;11.566;2022-11-20T15:48:17;2.05;;;1.42;;
22144;SDS011;11238;48.730;11.566;2022-11-20T15:50:56;2.63;;;1.55;;
22144;SDS011;11238;48.730;11.566;2022-11-20T15:53:25;2.20;;;1.40;;
22144;SDS011;11238;48.730;11.566;2022-11-20T15:55:50;1.95;;;1.65;;
22144;SDS011;11238;48.730;11.566;2022-11-20T15:58:17;2.40;;;1.65;;
22144;SDS011;11238;48.730;11.566;2022-11-20T16:00:42;1.70;;;1.60;;
22144;SDS011;11238;48.730;11.566;2022-11-20T16:03:13;2.42;;;1.80;;
22144;SDS011;11238;48.730;11.566;2022-11-20T16:05:40;2.10;;;1.77;;
22144;SDS011;11238;48.730;11.566;2022-11-20T16:08:06;3.42;;;2.00;;
22144;SDS011;11238;48.730;11.566;2022-11-20T16:10:33;2.15;;;1.95;;
22144;SDS011;11238;48.730;11.566;2022-11-20T16:12:58;2.63;;;1.95;;
22144;SDS011;11238;48.730;11.566;2022-11-20T16:15:44;2.88;;;2.10;;
22144;SDS011;11238;48.730;11.566;2022-11-20T16:18:19;2.63;;;1.77;;
22144;SDS011;11238;48.730;11.566;2022-11-20T16:20:47;6.00;;;1.92;;
22144;SDS011;11238;48.730;11.566;2022-11-20T16:23:14;2.53;;;1.98;;
22144;SDS011;11238;48.730;11.566;2022-11-20T16:25:41;2.10;;;1.80;;
22144;SDS011;11238;48.730;11.566;2022-11-20T16:28:07;4.88;;;1.83;;
22144;SDS011;11238;48.730;11.566;2022-11-20T16:30:34;2.95;;;1.80;;
22144;SDS011;11238;48.730;11.566;2022-11-20T16:33:00;2.03;;;1.83;;
22144;SDS011;11238;48.730;11.566;2022-11-20T16:35:27;3.17;;;1.70;;
22144;SDS011;11238;48.730;11.566;2022-11-20T16:37:57;3.10;;;1.65;;
22144;SDS011;11238;48.730;11.566;2022-11-20T16:40:23;2.10;;;1.90;;
22144;SDS011;11238;48.730;11.566;2022-11-20T16:42:50;2.70;;;2.03;;
22144;SDS011;11238;48.730;11.566;2022-11-20T16:45:16;5.85;;;1.95;;
22144;SDS011;11238;48.730;11.566;2022-11-20T16:47:43;1.83;;;1.70;;
22144;SDS011;11238;48.730;11.566;2022-11-20T16:50:08;1.75;;;1.60;;
22144;SDS011;11238;48.730;11.566;2022-11-20T16:52:34;2.00;;;1.80;;
22144;SDS011;11238;48.730;11.566;2022-11-20T16:55:00;2.47;;;1.90;;
22144;SDS011;11238;48.730;11.566;2022-11-20T16:57:27;3.20;;;1.90;;
22144;SDS011;11238;48.730;11.566;2022-11-20T16:59:54;3.33;;;1.95;;
22144;SDS011;11238;48.730;11.566;2022-11-20T17:02:20;3.78;;;2.10;;
22144;SDS011;11238;48.730;11.566;2022-11-20T17:04:46;2.75;;;1.80;;
22144;SDS011;11238;48.730;11.566;2022-11-20T17:07:12;2.92;;;1.90;;